Time;durP1;ratioP1;P1;durP2;ratioP2;P2;SDS_P1;SDS_P2;PMS_P1;PMS_P2;Temp;Humidity;BMP_temperature;BMP_pressure;BME280_temperature;BME280_humidity;BME280_pressure;Samples;Min_cycle;Max_cycle;Signal;HPM_P1;HPM_P2
2023/04/14 00:01:58;;;;;;;11.65;6.37;;;;;;;11.74;59.70;97677.75;4352309;32;34279;-84
2023/04/14 00:04:26;;;;;;;10.70;6.68;;;;;;;11.66;59.87;97672.69;4359519;32;34702;-84
2023/04/14 00:06:57;;;;;;;11.43;6.62;;;;;;;11.68;59.63;97662.28;4335058;32;33439;-85
2023/04/14 00:09:25;;;;;;;9.88;6.28;;;;;;;11.57;60.06;97657.25;4323803;32;35393;-83
2023/04/14 00:11:52;;;;;;;9.02;6.57;;;;;;;11.83;58.61;97659.47;4355394;32;34994;-83
2023/04/14 00:14:20;;;;;;;9.98;5.80;;;;;;;11.75;59.29;97663.06;4339874;32;33931;-84
2023/04/14 00:16:47;;;;;;;10.73;6.47;;;;;;;12.14;58.06;97665.00;4356375;32;34464;-84
2023/04/14 00:19:15;;;;;;;10.70;5.55;;;;;;;11.99;57.59;97672.22;4353303;32;34815;-84
2023/04/14 00:21:43;;;;;;;9.80;5.80;;;;;;;12.05;57.03;97665.19;4348804;32;34126;-84
2023/04/14 00:24:10;;;;;;;9.27;6.05;;;;;;;12.12;56.62;97672.00;4351222;32;36738;-85
2023/04/14 00:26:38;;;;;;;10.10;5.53;;;;;;;12.17;56.21;97680.56;4333975;32;33850;-83
2023/04/14 00:29:05;;;;;;;7.78;4.90;;;;;;;12.44;55.06;97677.47;4348286;32;34744;-84
2023/04/14 00:31:33;;;;;;;9.15;5.07;;;;;;;11.93;55.85;97675.75;4335503;33;34901;-84
2023/04/14 00:34:01;;;;;;;9.50;5.25;;;;;;;12.10;55.43;97673.75;4347787;32;33655;-83
2023/04/14 00:36:31;;;;;;;8.13;5.10;;;;;;;11.89;55.46;97672.38;4342010;32;33623;-85
2023/04/14 00:38:59;;;;;;;10.60;5.10;;;;;;;12.16;54.30;97660.66;4357368;32;33652;-84
2023/04/14 00:41:32;;;;;;;8.55;4.78;;;;;;;12.06;54.95;97659.09;4359602;32;33769;-86
2023/04/14 00:44:00;;;;;;;9.07;4.50;;;;;;;11.93;54.37;97657.56;4355649;32;34245;-86
2023/04/14 00:46:28;;;;;;;8.60;4.37;;;;;;;12.09;54.50;97663.38;4349547;32;33634;-85
2023/04/14 00:48:56;;;;;;;6.82;4.70;;;;;;;12.10;54.18;97660.75;4350679;32;33808;-86
2023/04/14 00:51:24;;;;;;;8.52;4.90;;;;;;;12.13;53.84;97647.72;4354965;32;34176;-85
2023/04/14 00:53:52;;;;;;;8.63;4.68;;;;;;;12.17;54.12;97646.78;4342988;32;33417;-85
2023/04/14 00:56:20;;;;;;;9.63;5.35;;;;;;;12.07;54.16;97653.00;4350820;32;32176;-83
2023/04/14 00:58:50;;;;;;;8.10;4.85;;;;;;;12.13;53.90;97642.53;4334516;33;34671;-85
2023/04/14 01:01:19;;;;;;;8.93;4.93;;;;;;;12.24;53.83;97633.69;4334892;32;33377;-85
2023/04/14 01:03:47;;;;;;;8.48;4.80;;;;;;;12.28;53.93;97623.19;4335197;32;34042;-84
2023/04/14 01:06:15;;;;;;;8.48;5.37;;;;;;;12.28;54.21;97625.81;4355752;32;33445;-85
2023/04/14 01:08:43;;;;;;;7.90;4.72;;;;;;;12.19;54.46;97623.34;4355371;32;34040;-85
2023/04/14 01:11:31;;;;;;;7.43;5.10;;;;;;;12.38;53.81;97616.06;4353639;32;35179;-85
2023/04/14 01:14:09;;;;;;;7.12;4.47;;;;;;;12.20;53.82;97586.13;4337001;32;34849;-84
2023/04/14 01:16:39;;;;;;;12.63;4.97;;;;;;;12.21;53.87;97585.22;4342386;32;34180;-86
2023/04/14 01:19:51;;;;;;;8.52;5.10;;;;;;;11.90;54.75;97572.81;4339963;32;34646;-85
2023/04/14 01:22:21;;;;;;;7.85;5.15;;;;;;;12.07;54.16;97559.50;4337720;32;34042;-85
2023/04/14 01:25:07;;;;;;;8.57;4.93;;;;;;;12.04;54.15;97551.75;4391507;27;33980;-82
2023/04/14 01:27:43;;;;;;;7.53;5.05;;;;;;;11.79;54.66;97540.94;4392230;32;34302;-81
2023/04/14 01:30:45;;;;;;;8.27;4.55;;;;;;;11.71;55.04;97549.78;4380131;32;33793;-82
2023/04/14 01:33:17;;;;;;;7.22;4.90;;;;;;;12.14;53.88;97548.09;4379954;32;34962;-83
2023/04/14 01:35:48;;;;;;;8.23;4.82;;;;;;;12.37;53.04;97547.66;4393657;32;35450;-83
2023/04/14 01:38:24;;;;;;;9.98;4.28;;;;;;;12.13;53.44;97549.00;4380350;32;34493;-83
2023/04/14 01:40:56;;;;;;;6.82;4.80;;;;;;;12.33;52.30;97559.00;4394082;32;34057;-83
2023/04/14 01:43:26;;;;;;;6.97;4.47;;;;;;;12.33;52.63;97555.53;4392705;32;34753;-83
2023/04/14 01:45:57;;;;;;;6.78;4.62;;;;;;;12.20;51.96;97543.66;4379781;32;34002;-82
2023/04/14 01:48:26;;;;;;;7.30;5.20;;;;;;;12.11;52.51;97542.97;4380051;32;33381;-84
2023/04/14 01:50:54;;;;;;;9.10;4.60;;;;;;;12.10;52.77;97551.66;4379980;32;34207;-82
2023/04/14 01:53:23;;;;;;;7.90;4.60;;;;;;;11.96;52.62;97547.59;4380465;32;33783;-82
2023/04/14 01:55:51;;;;;;;7.72;4.35;;;;;;;12.08;53.02;97539.56;4379978;32;33582;-83
2023/04/14 01:58:20;;;;;;;8.07;4.97;;;;;;;12.21;52.59;97543.66;4379632;32;34249;-83
2023/04/14 02:00:49;;;;;;;7.50;4.65;;;;;;;12.31;52.10;97521.81;4375809;32;34173;-82
2023/04/14 02:03:20;;;;;;;10.02;4.57;;;;;;;12.00;53.00;97510.28;4369808;32;33770;-82
2023/04/14 02:05:50;;;;;;;8.55;5.07;;;;;;;12.31;52.11;97510.53;4380850;32;33956;-82
2023/04/14 02:08:19;;;;;;;6.90;4.15;;;;;;;12.28;52.05;97502.81;4367434;32;33534;-82
2023/04/14 02:10:48;;;;;;;9.10;4.60;;;;;;;11.95;52.85;97512.12;4373206;32;34036;-83
2023/04/14 02:13:17;;;;;;;7.47;4.95;;;;;;;12.14;51.88;97514.34;4372866;32;34099;-83
2023/04/14 02:15:47;;;;;;;10.48;5.47;;;;;;;12.02;52.40;97531.91;4374705;32;33989;-81
2023/04/14 02:18:14;;;;;;;9.55;5.60;;;;;;;11.93;52.64;97527.72;4375293;32;34825;-83
2023/04/14 02:20:43;;;;;;;8.18;4.43;;;;;;;12.11;52.34;97535.16;4370205;32;33845;-82
2023/04/14 02:23:11;;;;;;;7.03;4.57;;;;;;;12.05;52.36;97527.50;4370367;32;34024;-84
2023/04/14 02:25:42;;;;;;;9.57;4.62;;;;;;;12.02;52.37;97539.69;4376417;32;34007;-85
2023/04/14 02:28:16;;;;;;;7.68;4.40;;;;;;;12.34;51.44;97552.06;4369843;32;34712;-85
2023/04/14 02:30:49;;;;;;;7.18;4.12;;;;;;;12.12;51.70;97538.63;4367795;32;33943;-84
2023/04/14 02:33:22;;;;;;;8.60;4.12;;;;;;;12.07;51.99;97543.91;4368634;32;34216;-85
2023/04/14 02:36:11;;;;;;;8.18;4.45;;;;;;;11.91;52.65;97552.88;4364719;32;33943;-85
2023/04/14 02:38:46;;;;;;;7.30;4.50;;;;;;;11.99;52.04;97542.34;4376430;32;33392;-84
2023/04/14 02:41:26;;;;;;;6.97;4.15;;;;;;;12.14;51.80;97532.53;4376054;32;34078;-84
2023/04/14 02:44:18;;;;;;;9.05;4.90;;;;;;;12.21;51.63;97545.41;4374481;32;35105;-84
2023/04/14 02:46:53;;;;;;;9.50;4.30;;;;;;;12.23;51.88;97541.88;4372028;32;33449;-86
2023/04/14 02:49:22;;;;;;;6.95;3.97;;;;;;;12.20;51.41;97538.47;4360925;32;34479;-84
2023/04/14 02:51:51;;;;;;;7.20;4.62;;;;;;;12.07;51.63;97546.50;4365408;32;33626;-84
2023/04/14 02:54:19;;;;;;;8.60;4.25;;;;;;;12.29;51.48;97530.50;4362573;32;31934;-85
2023/04/14 02:56:47;;;;;;;7.45;4.28;;;;;;;12.33;51.10;97529.56;4371075;32;34383;-85
2023/04/14 02:59:15;;;;;;;7.40;4.32;;;;;;;12.46;51.17;97525.81;4380517;32;34164;-85
2023/04/14 03:01:44;;;;;;;8.75;4.65;;;;;;;12.29;51.60;97520.12;4379424;32;33788;-86
2023/04/14 03:04:12;;;;;;;8.40;4.55;;;;;;;12.24;51.36;97520.22;4381455;32;35200;-84
2023/04/14 03:06:40;;;;;;;7.72;4.60;;;;;;;12.23;51.67;97513.28;4384757;32;35085;-85
2023/04/14 03:09:09;;;;;;;9.02;4.55;;;;;;;12.36;51.75;97516.50;4378550;32;33267;-85
2023/04/14 03:11:37;;;;;;;8.60;4.78;;;;;;;12.22;51.48;97526.31;4362284;32;34608;-83
2023/04/14 03:14:06;;;;;;;8.45;4.80;;;;;;;12.24;51.74;97506.38;4380770;32;32738;-85
2023/04/14 03:16:38;;;;;;;9.20;4.70;;;;;;;12.40;51.52;97506.00;4353334;32;33076;-85
2023/04/14 03:19:07;;;;;;;7.90;4.85;;;;;;;12.41;51.30;97496.47;4369765;32;33358;-84
2023/04/14 03:21:35;;;;;;;9.68;5.20;;;;;;;12.34;51.94;97490.53;4362560;32;34616;-84
2023/04/14 03:24:05;;;;;;;11.63;4.65;;;;;;;12.43;51.96;97488.66;4366411;32;34286;-84
2023/04/14 03:26:33;;;;;;;9.10;4.20;;;;;;;12.28;52.21;97476.84;4351517;32;33692;-85
2023/04/14 03:29:01;;;;;;;7.65;4.50;;;;;;;12.08;53.27;97465.09;4370664;32;34170;-85
2023/04/14 03:31:32;;;;;;;7.70;4.85;;;;;;;12.29;53.13;97487.19;4377330;32;34043;-85
2023/04/14 03:34:02;;;;;;;8.00;4.70;;;;;;;12.39;51.90;97506.91;4379967;32;34075;-84
2023/04/14 03:36:30;;;;;;;8.27;5.07;;;;;;;12.18;52.55;97508.19;4365664;32;34997;-85
2023/04/14 03:39:00;;;;;;;8.15;4.60;;;;;;;12.63;52.10;97518.50;4373498;32;33448;-84
2023/04/14 03:41:33;;;;;;;9.15;4.87;;;;;;;12.77;51.76;97518.22;4369889;32;34656;-85
2023/04/14 03:44:03;;;;;;;10.45;4.93;;;;;;;12.48;51.50;97529.25;4359992;32;32734;-84
2023/04/14 03:46:31;;;;;;;9.32;4.95;;;;;;;12.46;53.06;97557.00;4361960;32;33833;-85
2023/04/14 03:49:01;;;;;;;11.48;5.47;;;;;;;12.69;52.37;97573.84;4364752;32;33272;-84
2023/04/14 03:51:31;;;;;;;7.45;4.47;;;;;;;12.54;53.07;97565.50;4342593;32;32810;-85
2023/04/14 03:54:00;;;;;;;8.05;4.87;;;;;;;12.80;52.53;97577.09;4380922;32;35099;-84
2023/04/14 03:56:28;;;;;;;8.43;5.22;;;;;;;12.42;53.60;97570.94;4384354;32;33867;-86
2023/04/14 03:58:56;;;;;;;8.02;5.10;;;;;;;12.45;53.90;97560.47;4363142;32;34195;-84
2023/04/14 04:01:25;;;;;;;8.82;4.75;;;;;;;12.28;53.93;97558.25;4365461;32;33720;-85
2023/04/14 04:03:54;;;;;;;9.73;6.03;;;;;;;12.34;53.76;97557.25;4367449;32;35109;-85
2023/04/14 04:06:22;;;;;;;8.40;5.15;;;;;;;12.27;54.34;97550.47;4368729;32;34207;-84
2023/04/14 04:08:51;;;;;;;8.32;5.40;;;;;;;12.18;54.05;97547.16;4362715;32;33665;-84
2023/04/14 04:11:19;;;;;;;9.63;5.95;;;;;;;12.05;54.75;97540.50;4382459;32;33215;-83
2023/04/14 04:13:48;;;;;;;8.57;5.18;;;;;;;11.96;54.62;97537.22;4369804;32;34134;-85
2023/04/14 04:16:15;;;;;;;9.52;5.60;;;;;;;12.13;54.20;97533.41;4349480;32;34993;-84
2023/04/14 04:18:47;;;;;;;9.90;5.85;;;;;;;12.14;53.99;97529.06;4369849;32;34165;-84
2023/04/14 04:21:17;;;;;;;7.40;5.50;;;;;;;12.11;54.34;97529.97;4370530;32;34575;-85
2023/04/14 04:23:48;;;;;;;7.75;4.93;;;;;;;12.28;54.05;97521.88;4367644;32;34985;-83
2023/04/14 04:26:15;;;;;;;12.05;5.60;;;;;;;12.13;54.19;97511.78;4357818;32;32998;-83
2023/04/14 04:28:44;;;;;;;9.68;5.40;;;;;;;11.88;54.74;97501.84;4382993;32;33318;-83
2023/04/14 04:31:13;;;;;;;10.48;4.93;;;;;;;11.90;55.25;97507.03;4385251;32;34879;-84
2023/04/14 04:33:40;;;;;;;8.48;5.53;;;;;;;12.00;54.97;97500.75;4355184;32;33712;-84
2023/04/14 04:36:10;;;;;;;9.15;5.50;;;;;;;11.98;54.70;97492.16;4372591;32;34559;-86
2023/04/14 04:38:38;;;;;;;9.88;5.90;;;;;;;11.84;55.11;97483.78;4376968;32;34278;-85
2023/04/14 04:41:06;;;;;;;13.20;6.97;;;;;;;11.90;55.16;97494.91;4361849;32;33737;-86
2023/04/14 04:43:35;;;;;;;12.50;6.53;;;;;;;11.85;55.14;97498.47;4361389;32;34381;-85
2023/04/14 04:46:40;;;;;;;12.13;7.22;;;;;;;11.89;55.05;97510.50;4374497;32;34089;-84
2023/04/14 04:49:08;;;;;;;10.70;6.65;;;;;;;11.93;55.20;97520.81;4363332;32;34320;-85
2023/04/14 04:51:35;;;;;;;12.95;7.07;;;;;;;11.74;55.73;97523.72;4390082;32;33824;-84
2023/04/14 04:54:03;;;;;;;11.88;7.60;;;;;;;11.81;55.43;97509.75;4389984;32;34148;-85
2023/04/14 04:56:30;;;;;;;10.02;6.10;;;;;;;11.94;54.90;97519.06;4374812;32;33943;-84
2023/04/14 04:58:58;;;;;;;12.00;6.40;;;;;;;11.76;55.31;97516.78;4361378;32;33751;-84
2023/04/14 05:01:26;;;;;;;10.63;6.28;;;;;;;11.83;55.33;97526.19;4378554;32;34801;-86
2023/04/14 05:03:53;;;;;;;9.35;5.90;;;;;;;11.73;55.38;97525.47;4389705;32;35026;-85
2023/04/14 05:06:21;;;;;;;11.70;6.47;;;;;;;12.02;54.81;97537.09;4377590;32;33587;-85
2023/04/14 05:08:55;;;;;;;10.68;5.90;;;;;;;11.93;55.09;97544.19;4374880;32;33558;-85
2023/04/14 05:11:22;;;;;;;12.48;5.82;;;;;;;12.08;54.37;97543.03;4374928;32;34117;-84
2023/04/14 05:13:50;;;;;;;10.70;5.90;;;;;;;12.23;54.19;97535.81;4361421;32;33776;-84
2023/04/14 05:16:18;;;;;;;11.43;5.93;;;;;;;12.34;54.12;97539.06;4381079;32;33569;-85
2023/04/14 05:18:46;;;;;;;10.80;5.97;;;;;;;12.28;53.91;97531.41;4374098;32;33525;-85
2023/04/14 05:21:14;;;;;;;10.52;6.28;;;;;;;12.29;54.36;97549.56;4382083;32;34765;-85
2023/04/14 05:23:43;;;;;;;10.18;5.85;;;;;;;12.25;54.40;97536.66;4382156;32;34681;-85
2023/04/14 05:26:11;;;;;;;10.57;6.28;;;;;;;12.21;54.39;97542.81;4385944;32;34046;-86
2023/04/14 05:28:42;;;;;;;13.20;6.75;;;;;;;12.39;53.95;97542.44;4379052;32;33484;-83
2023/04/14 05:31:09;;;;;;;13.30;6.43;;;;;;;12.26;54.43;97543.56;4374624;32;33699;-83
2023/04/14 05:33:38;;;;;;;9.48;6.10;;;;;;;12.40;54.16;97532.00;4374527;32;35122;-86
2023/04/14 05:36:06;;;;;;;11.25;6.35;;;;;;;12.16;54.74;97537.69;4349101;32;33822;-85
2023/04/14 05:38:40;;;;;;;9.52;6.00;;;;;;;11.98;55.69;97541.50;4365947;32;33438;-84
2023/04/14 05:41:08;;;;;;;10.88;6.57;;;;;;;12.08;54.98;97539.56;4376147;32;33965;-86
2023/04/14 05:43:35;;;;;;;9.93;5.97;;;;;;;12.17;54.69;97542.84;4387072;32;34261;-85
2023/04/14 05:46:03;;;;;;;11.35;6.25;;;;;;;12.09;54.91;97556.88;4389390;32;34003;-84
2023/04/14 05:48:32;;;;;;;11.77;6.62;;;;;;;11.94;55.58;97555.44;4378854;32;33807;-83
2023/04/14 05:51:00;;;;;;;9.93;6.37;;;;;;;12.04;55.27;97564.75;4375468;32;33914;-84
2023/04/14 05:53:28;;;;;;;11.85;6.65;;;;;;;11.98;55.98;97570.06;4374524;32;33751;-84
2023/04/14 05:55:56;;;;;;;12.15;7.00;;;;;;;12.12;55.65;97568.06;4374200;32;33790;-84
2023/04/14 05:58:25;;;;;;;10.40;6.28;;;;;;;11.91;56.57;97552.88;4383683;32;33565;-84
2023/04/14 06:00:52;;;;;;;13.02;6.30;;;;;;;12.08;56.04;97555.16;4391417;32;33631;-84
2023/04/14 06:03:20;;;;;;;14.48;6.68;;;;;;;11.83;56.24;97544.34;4391485;32;34194;-84
2023/04/14 06:05:49;;;;;;;13.62;6.68;;;;;;;12.30;56.10;97547.81;4391276;32;34563;-84
2023/04/14 06:08:17;;;;;;;10.57;7.10;;;;;;;12.14;56.13;97540.31;4389997;32;34230;-84
2023/04/14 06:10:45;;;;;;;11.23;6.10;;;;;;;12.24;56.64;97551.41;4377501;32;34032;-84
2023/04/14 06:13:13;;;;;;;19.17;6.55;;;;;;;12.47;55.65;97539.69;4377539;32;35501;-84
2023/04/14 06:15:41;;;;;;;9.90;6.25;;;;;;;12.43;55.61;97541.47;4377761;32;33654;-83
2023/04/14 06:18:09;;;;;;;10.45;6.68;;;;;;;12.34;56.13;97544.25;4391301;32;34165;-84
2023/04/14 06:20:37;;;;;;;9.07;5.62;;;;;;;12.21;56.06;97538.47;4391049;32;34019;-84
2023/04/14 06:23:05;;;;;;;12.50;6.70;;;;;;;12.16;56.12;97538.56;4384221;32;34186;-84
2023/04/14 06:25:34;;;;;;;8.75;6.20;;;;;;;12.50;56.25;97535.28;4375929;32;34627;-84
2023/04/14 06:28:02;;;;;;;11.50;6.87;;;;;;;12.43;55.75;97533.69;4376222;32;34623;-84
2023/04/14 06:30:32;;;;;;;10.68;5.97;;;;;;;12.43;55.52;97531.09;4376188;32;34777;-85
2023/04/14 06:33:03;;;;;;;10.18;6.07;;;;;;;12.47;55.60;97522.34;4362669;32;35103;-85
2023/04/14 06:35:31;;;;;;;11.48;6.22;;;;;;;12.37;55.29;97515.59;4376083;32;33820;-84
2023/04/14 06:38:01;;;;;;;10.85;7.85;;;;;;;12.28;55.76;97518.41;4376146;32;33856;-84
2023/04/14 06:40:28;;;;;;;9.93;6.28;;;;;;;12.33;55.43;97516.56;4376024;32;34919;-84
2023/04/14 06:42:56;;;;;;;13.57;7.07;;;;;;;12.22;55.98;97506.38;4376142;32;34193;-84
2023/04/14 06:45:24;;;;;;;13.48;6.30;;;;;;;12.35;55.88;97509.56;4376048;32;33937;-84
2023/04/14 06:47:51;;;;;;;11.73;6.60;;;;;;;12.28;55.69;97513.22;4375996;32;34457;-85
2023/04/14 06:50:19;;;;;;;12.07;6.30;;;;;;;12.13;56.15;97504.84;4384692;32;35076;-84
2023/04/14 06:52:46;;;;;;;10.38;6.85;;;;;;;12.09;56.67;97513.59;4390984;32;33958;-84
2023/04/14 06:55:14;;;;;;;13.25;6.78;;;;;;;12.22;56.40;97510.72;4391073;32;33674;-84
2023/04/14 06:57:41;;;;;;;11.77;7.22;;;;;;;12.04;56.87;97518.00;4391249;32;33010;-83
2023/04/14 07:00:10;;;;;;;11.63;6.87;;;;;;;12.20;56.22;97515.09;4391029;32;34159;-84
2023/04/14 07:02:37;;;;;;;11.00;6.40;;;;;;;12.26;56.17;97515.81;4390771;32;34106;-83
2023/04/14 07:05:06;;;;;;;12.63;7.03;;;;;;;12.35;55.73;97517.38;4390915;32;34573;-84
2023/04/14 07:07:38;;;;;;;11.05;6.93;;;;;;;12.62;55.49;97519.41;4377066;32;34382;-84
2023/04/14 07:10:06;;;;;;;12.25;6.93;;;;;;;12.40;55.71;97521.59;4390744;32;34689;-84
2023/04/14 07:12:35;;;;;;;11.12;6.95;;;;;;;12.59;55.34;97521.22;4377214;32;34756;-85
2023/04/14 07:15:02;;;;;;;12.60;7.25;;;;;;;12.85;55.00;97515.44;4387767;32;34292;-84
2023/04/14 07:17:30;;;;;;;11.40;7.30;;;;;;;12.72;54.71;97522.63;4362275;32;34497;-84
2023/04/14 07:19:58;;;;;;;11.52;6.62;;;;;;;12.85;54.87;97523.25;4375738;32;34293;-84
2023/04/14 07:22:25;;;;;;;12.02;7.30;;;;;;;13.00;54.45;97516.84;4366738;32;34183;-84
2023/04/14 07:24:53;;;;;;;11.12;7.45;;;;;;;13.11;54.04;97526.09;4390813;32;34156;-84
2023/04/14 07:27:20;;;;;;;10.25;6.45;;;;;;;12.96;54.83;97518.66;4390704;32;33820;-84
2023/04/14 07:29:48;;;;;;;13.95;8.10;;;;;;;13.05;54.74;97505.41;4377095;32;34769;-84
2023/04/14 07:32:15;;;;;;;18.67;10.68;;;;;;;12.66;55.28;97502.84;4390696;32;33787;-84
2023/04/14 07:34:43;;;;;;;15.07;8.95;;;;;;;12.44;56.47;97506.81;4380258;32;34453;-84
2023/04/14 07:37:10;;;;;;;12.20;7.78;;;;;;;12.36;56.96;97498.31;4375481;32;34364;-84
2023/04/14 07:39:39;;;;;;;11.68;7.20;;;;;;;12.73;56.45;97497.50;4375753;32;34304;-84
2023/04/14 07:42:07;;;;;;;11.57;6.97;;;;;;;13.03;56.12;97494.22;4375788;32;34724;-84
2023/04/14 07:44:34;;;;;;;11.95;6.75;;;;;;;13.08;55.60;97501.91;4375557;32;33774;-84
2023/04/14 07:47:02;;;;;;;13.88;7.40;;;;;;;13.12;56.66;97499.19;4362340;32;33260;-84
2023/04/14 07:49:32;;;;;;;13.20;7.35;;;;;;;13.00;56.45;97501.22;4375651;32;33584;-85
2023/04/14 07:52:00;;;;;;;16.55;9.85;;;;;;;12.75;57.51;97493.97;4375338;32;34695;-84
2023/04/14 07:54:28;;;;;;;18.60;10.73;;;;;;;12.74;57.16;97504.44;4375873;32;34099;-84
2023/04/14 07:56:56;;;;;;;19.52;12.52;;;;;;;12.65;57.94;97508.94;4362005;32;34005;-84
2023/04/14 07:59:24;;;;;;;14.75;8.25;;;;;;;12.90;56.78;97506.63;4373575;32;33899;-84
2023/04/14 08:01:51;;;;;;;10.55;6.82;;;;;;;12.95;56.99;97511.72;4390591;32;34264;-83
2023/04/14 08:04:19;;;;;;;11.65;7.05;;;;;;;12.83;57.35;97510.25;4390521;32;34062;-84
2023/04/14 08:06:46;;;;;;;13.57;7.80;;;;;;;13.03;56.91;97507.22;4390592;32;33533;-84
2023/04/14 08:09:14;;;;;;;11.75;7.25;;;;;;;13.12;57.07;97500.94;4390634;32;33758;-84
2023/04/14 08:11:42;;;;;;;13.45;7.72;;;;;;;13.40;57.48;97495.91;4376811;32;32433;-84
2023/04/14 08:14:09;;;;;;;14.25;7.68;;;;;;;13.24;57.23;97494.59;4390423;32;35056;-83
2023/04/14 08:16:37;;;;;;;13.88;7.97;;;;;;;13.05;56.53;97489.81;4390661;32;34240;-84
2023/04/14 08:19:05;;;;;;;13.10;6.70;;;;;;;13.21;56.56;97486.84;4390539;32;33761;-84
2023/04/14 08:21:32;;;;;;;12.35;6.90;;;;;;;13.01;56.41;97487.31;4375933;32;33370;-84
2023/04/14 08:23:59;;;;;;;11.85;6.80;;;;;;;12.92;56.99;97491.00;4376808;32;34459;-84
2023/04/14 08:26:27;;;;;;;12.00;6.90;;;;;;;13.07;56.16;97482.84;4389182;32;34500;-84
2023/04/14 08:28:55;;;;;;;16.70;7.20;;;;;;;13.10;57.23;97487.94;4390167;32;33751;-84
2023/04/14 08:31:23;;;;;;;10.20;7.07;;;;;;;13.01;56.81;97480.38;4390557;32;34875;-84
2023/04/14 08:33:51;;;;;;;10.68;6.85;;;;;;;13.10;56.67;97487.09;4376590;32;33867;-84
2023/04/14 08:36:19;;;;;;;10.57;6.43;;;;;;;12.90;57.92;97491.03;4390253;32;32951;-84
2023/04/14 08:38:47;;;;;;;11.45;7.05;;;;;;;13.19;56.81;97489.47;4390315;32;34487;-84
2023/04/14 08:41:17;;;;;;;10.70;6.22;;;;;;;12.87;57.99;97498.03;4376637;32;34879;-84
2023/04/14 08:43:45;;;;;;;14.65;8.68;;;;;;;12.93;57.64;97497.91;4390255;32;33844;-83
2023/04/14 08:46:13;;;;;;;13.38;7.85;;;;;;;12.85;58.06;97512.84;4376759;32;33265;-85
2023/04/14 08:48:45;;;;;;;13.18;8.80;;;;;;;12.69;59.64;97509.75;4390016;32;33874;-84
2023/04/14 08:51:28;;;;;;;12.35;8.10;;;;;;;12.88;60.03;97521.44;4364219;32;33204;-85
2023/04/14 08:53:56;;;;;;;21.87;13.80;;;;;;;12.86;59.84;97514.53;4376387;32;34785;-85
2023/04/14 08:56:27;;;;;;;21.95;13.68;;;;;;;12.59;61.82;97513.41;4371002;32;33568;-85
2023/04/14 08:58:55;;;;;;;15.90;9.85;;;;;;;12.54;62.94;97512.62;4349362;32;33393;-84
2023/04/14 09:01:23;;;;;;;13.32;7.95;;;;;;;12.77;62.87;97519.97;4361348;32;34116;-85
2023/04/14 09:03:51;;;;;;;12.65;9.07;;;;;;;12.70;64.01;97518.38;4374883;32;34137;-84
2023/04/14 09:06:19;;;;;;;14.35;8.98;;;;;;;12.47;64.82;97516.28;4361716;32;33630;-84
2023/04/14 09:08:47;;;;;;;15.98;8.55;;;;;;;12.83;64.96;97518.06;4348848;32;34183;-84
2023/04/14 09:11:15;;;;;;;17.27;10.30;;;;;;;12.63;65.78;97521.09;4361549;32;34168;-84
2023/04/14 09:13:43;;;;;;;18.40;11.48;;;;;;;12.70;65.41;97523.59;4374819;32;34270;-85
2023/04/14 09:16:12;;;;;;;19.00;12.75;;;;;;;12.29;68.07;97527.91;4374752;32;34393;-85
2023/04/14 09:18:39;;;;;;;27.87;16.52;;;;;;;12.49;67.14;97533.53;4361176;32;34924;-85
2023/04/14 09:21:08;;;;;;;25.30;18.17;;;;;;;12.43;67.27;97533.69;4361220;32;33933;-84
2023/04/14 09:23:56;;;;;;;19.85;12.88;;;;;;;12.46;66.95;97536.19;4374507;32;34654;-85
2023/04/14 09:26:26;;;;;;;17.45;10.70;;;;;;;12.36;68.12;97539.91;4375449;32;34360;-85
2023/04/14 09:28:53;;;;;;;14.10;10.25;;;;;;;12.49;67.89;97546.53;4374743;32;33594;-84
2023/04/14 09:31:23;;;;;;;17.58;11.10;;;;;;;12.52;67.55;97543.88;4375118;32;33922;-84
2023/04/14 09:33:50;;;;;;;24.95;15.25;;;;;;;12.34;68.68;97544.25;4363534;32;33686;-83
2023/04/14 09:36:18;;;;;;;30.83;19.00;;;;;;;12.09;70.08;97543.91;4376443;32;33346;-84
2023/04/14 09:38:47;;;;;;;24.50;15.10;;;;;;;12.36;69.23;97537.28;4363533;32;34089;-83
2023/04/14 09:41:18;;;;;;;26.55;16.23;;;;;;;12.32;69.14;97539.09;4376538;32;33849;-83
2023/04/14 09:43:46;;;;;;;16.85;11.25;;;;;;;12.49;69.12;97545.69;4362625;32;34053;-84
2023/04/14 09:46:14;;;;;;;14.43;9.85;;;;;;;12.38;69.14;97538.09;4350446;32;33009;-84
2023/04/14 09:48:51;;;;;;;16.73;10.20;;;;;;;12.03;71.28;97542.25;4363000;32;34520;-84
2023/04/14 09:51:28;;;;;;;13.85;10.23;;;;;;;12.10;71.28;97537.81;4376371;32;33863;-84
2023/04/14 09:54:03;;;;;;;14.45;9.23;;;;;;;12.08;72.19;97535.22;4376090;32;34984;-84
2023/04/14 09:56:31;;;;;;;;;;;;;;;12.10;71.61;97535.22;4376892;32;33338;-84
2023/04/14 09:59:00;;;;;;;17.35;10.55;;;;;;;12.04;72.31;97538.78;4376664;32;34797;-84
2023/04/14 10:01:31;;;;;;;22.58;15.23;;;;;;;12.15;71.49;97539.41;4362532;32;35059;-84
2023/04/14 10:04:00;;;;;;;36.25;21.17;;;;;;;12.31;72.08;97537.41;4362810;32;33633;-84
2023/04/14 10:06:30;;;;;;;21.67;14.57;;;;;;;12.16;73.67;97548.94;4362949;32;33177;-84
2023/04/14 10:08:58;;;;;;;23.60;16.48;;;;;;;12.24;72.35;97555.75;4377424;32;34070;-84
2023/04/14 10:11:28;;;;;;;19.35;14.52;;;;;;;12.11;73.38;97545.56;4377840;32;34060;-83
2023/04/14 10:13:59;;;;;;;18.92;13.07;;;;;;;12.12;73.78;97551.59;4377681;32;33423;-84
2023/04/14 10:16:26;;;;;;;20.77;13.15;;;;;;;11.90;74.31;97551.19;4377769;32;33506;-85
2023/04/14 10:18:56;;;;;;;17.52;12.45;;;;;;;12.20;73.72;97546.25;4377846;32;33562;-84
2023/04/14 10:21:24;;;;;;;18.15;13.20;;;;;;;11.82;73.98;97535.72;4378029;32;33997;-84
2023/04/14 10:23:55;;;;;;;19.98;13.90;;;;;;;11.86;75.01;97544.34;4391154;32;33862;-83
2023/04/14 10:26:22;;;;;;;18.77;13.32;;;;;;;11.78;75.89;97551.34;4391103;32;34125;-84
2023/04/14 10:28:52;;;;;;;19.00;13.00;;;;;;;11.89;75.13;97546.84;4391117;32;35440;-84
2023/04/14 10:31:26;;;;;;;24.15;14.70;;;;;;;12.01;75.64;97544.03;4377492;32;34180;-84
2023/04/14 10:33:54;;;;;;;20.45;13.93;;;;;;;12.42;74.75;97537.16;4377520;32;33562;-84
2023/04/14 10:36:26;;;;;;;21.92;13.98;;;;;;;12.22;75.60;97544.50;4377399;32;34435;-84
2023/04/14 10:38:59;;;;;;;19.27;14.02;;;;;;;12.11;75.69;97549.91;4376747;32;33444;-84
2023/04/14 10:41:46;;;;;;;22.83;13.93;;;;;;;11.78;77.63;97548.75;4362502;32;34022;-84
2023/04/14 10:44:33;;;;;;;22.95;16.05;;;;;;;12.27;75.43;97558.25;4375537;32;34141;-83
2023/04/14 10:47:03;;;;;;;24.33;17.60;;;;;;;12.39;75.24;97561.47;4363850;32;33824;-83
2023/04/14 10:49:36;;;;;;;20.05;13.73;;;;;;;12.32;75.56;97554.69;4362417;32;33417;-84
2023/04/14 10:52:25;;;;;;;22.60;13.68;;;;;;;12.51;74.35;97556.91;4362318;32;34298;-84
2023/04/14 10:54:54;;;;;;;18.73;13.70;;;;;;;12.21;75.63;97550.59;4366041;32;33840;-83
2023/04/14 10:57:31;;;;;;;24.77;15.25;;;;;;;12.00;76.74;97557.91;4375851;32;34953;-84
2023/04/14 10:59:59;;;;;;;23.08;14.15;;;;;;;11.52;78.33;97560.47;4362196;32;33690;-84
2023/04/14 11:02:29;;;;;;;25.17;14.93;;;;;;;11.72;77.88;97557.53;4361942;32;34422;-84
2023/04/14 11:05:10;;;;;;;20.48;15.25;;;;;;;11.79;77.83;97545.28;4349973;32;33121;-84
2023/04/14 11:07:45;;;;;;;24.42;17.02;;;;;;;11.67;78.63;97548.97;4375916;32;34158;-84
2023/04/14 11:10:25;;;;;;;27.90;18.10;;;;;;;11.67;78.67;97548.97;4350267;32;34385;-84
2023/04/14 11:13:25;;;;;;;29.45;18.58;;;;;;;11.80;78.83;97539.22;4375927;32;33879;-84
2023/04/14 11:16:03;;;;;;;22.25;15.65;;;;;;;12.49;76.25;97540.47;4342519;32;34747;-84
2023/04/14 11:18:44;;;;;;;27.75;16.27;;;;;;;12.36;75.98;97535.53;4362189;32;34603;-84
2023/04/14 11:21:15;;;;;;;23.40;15.38;;;;;;;12.62;75.43;97537.59;4375773;32;33898;-84
2023/04/14 11:23:43;;;;;;;20.40;13.27;;;;;;;12.36;76.08;97530.34;4375385;32;33903;-84
2023/04/14 11:26:12;;;;;;;21.33;14.38;;;;;;;12.34;76.27;97531.25;4375693;32;34051;-84
2023/04/14 11:28:41;;;;;;;20.92;13.95;;;;;;;12.54;75.11;97525.63;4362052;32;33624;-84
2023/04/14 11:31:11;;;;;;;25.55;16.12;;;;;;;11.98;78.01;97527.66;4362224;32;33594;-85
2023/04/14 11:33:40;;;;;;;23.20;14.90;;;;;;;12.37;76.91;97528.59;4362068;32;34129;-85
2023/04/14 11:36:09;;;;;;;19.67;14.20;;;;;;;12.20;77.79;97522.88;4361864;32;34904;-85
2023/04/14 11:38:40;;;;;;;22.30;14.93;;;;;;;12.45;76.43;97526.69;4375543;32;33880;-85
2023/04/14 11:41:08;;;;;;;17.35;13.65;;;;;;;12.29;77.20;97531.34;4363510;32;33272;-85